sensor_id;sensor_type;location;lat;lon;timestamp;temperature;humidity
77305;DHT22;66364;52.622;7.746;2023-02-01T00:01:11;5.40;99.90
77305;DHT22;66364;52.622;7.746;2023-02-01T00:03:11;5.40;99.90
77305;DHT22;66364;52.622;7.746;2023-02-01T00:05:14;5.40;99.90
77305;DHT22;66364;52.622;7.746;2023-02-01T00:07:15;5.30;99.90
77305;DHT22;66364;52.622;7.746;2023-02-01T00:09:16;5.30;99.90
77305;DHT22;66364;52.622;7.746;2023-02-01T00:11:17;5.10;99.90
77305;DHT22;66364;52.622;7.746;2023-02-01T00:13:17;5.20;99.90
77305;DHT22;66364;52.622;7.746;2023-02-01T00:15:19;5.20;99.90
77305;DHT22;66364;52.622;7.746;2023-02-01T00:17:21;5.10;99.90
77305;DHT22;66364;52.622;7.746;2023-02-01T00:19:23;5.10;99.90
77305;DHT22;66364;52.622;7.746;2023-02-01T00:21:25;5.20;99.90
77305;DHT22;66364;52.622;7.746;2023-02-01T00:23:27;5.30;99.90
77305;DHT22;66364;52.622;7.746;2023-02-01T00:25:28;5.20;99.90
77305;DHT22;66364;52.622;7.746;2023-02-01T00:27:30;5.20;99.90
77305;DHT22;66364;52.622;7.746;2023-02-01T00:29:31;5.30;99.90
77305;DHT22;66364;52.622;7.746;2023-02-01T00:31:33;5.40;99.90
77305;DHT22;66364;52.622;7.746;2023-02-01T00:33:34;5.20;99.90
77305;DHT22;66364;52.622;7.746;2023-02-01T00:35:36;5.20;99.90
77305;DHT22;66364;52.622;7.746;2023-02-01T00:37:43;5.20;99.90
77305;DHT22;66364;52.622;7.746;2023-02-01T00:39:44;5.10;99.90
77305;DHT22;66364;52.622;7.746;2023-02-01T00:41:45;5.00;99.90
77305;DHT22;66364;52.622;7.746;2023-02-01T00:43:47;5.30;99.90
77305;DHT22;66364;52.622;7.746;2023-02-01T00:45:48;5.10;99.90
77305;DHT22;66364;52.622;7.746;2023-02-01T00:47:50;5.00;99.90
77305;DHT22;66364;52.622;7.746;2023-02-01T00:49:51;5.10;99.90
77305;DHT22;66364;52.622;7.746;2023-02-01T00:51:52;5.00;99.90
77305;DHT22;66364;52.622;7.746;2023-02-01T00:53:53;5.10;99.90
77305;DHT22;66364;52.622;7.746;2023-02-01T00:55:54;5.10;99.90
77305;DHT22;66364;52.622;7.746;2023-02-01T00:57:55;5.00;99.90
77305;DHT22;66364;52.622;7.746;2023-02-01T00:59:56;5.20;99.90
77305;DHT22;66364;52.622;7.746;2023-02-01T01:01:57;5.20;99.90
77305;DHT22;66364;52.622;7.746;2023-02-01T01:03:59;5.20;99.90
77305;DHT22;66364;52.622;7.746;2023-02-01T01:06:02;5.40;99.90
77305;DHT22;66364;52.622;7.746;2023-02-01T01:08:03;5.30;99.90
77305;DHT22;66364;52.622;7.746;2023-02-01T01:10:05;5.00;99.90
77305;DHT22;66364;52.622;7.746;2023-02-01T01:12:06;5.20;99.90
77305;DHT22;66364;52.622;7.746;2023-02-01T01:14:07;5.20;99.90
77305;DHT22;66364;52.622;7.746;2023-02-01T01:16:12;5.10;99.90
77305;DHT22;66364;52.622;7.746;2023-02-01T01:18:13;5.10;99.90
77305;DHT22;66364;52.622;7.746;2023-02-01T01:20:14;5.20;99.90
77305;DHT22;66364;52.622;7.746;2023-02-01T01:22:14;5.10;99.90
77305;DHT22;66364;52.622;7.746;2023-02-01T01:24:15;5.00;99.90
77305;DHT22;66364;52.622;7.746;2023-02-01T01:26:19;5.30;99.90
77305;DHT22;66364;52.622;7.746;2023-02-01T01:28:22;5.30;99.90
77305;DHT22;66364;52.622;7.746;2023-02-01T01:30:23;5.10;99.90
77305;DHT22;66364;52.622;7.746;2023-02-01T01:32:24;5.10;99.90
77305;DHT22;66364;52.622;7.746;2023-02-01T01:34:25;5.10;99.90
77305;DHT22;66364;52.622;7.746;2023-02-01T01:36:27;5.10;99.90
77305;DHT22;66364;52.622;7.746;2023-02-01T01:38:34;5.10;99.90
77305;DHT22;66364;52.622;7.746;2023-02-01T01:40:35;5.10;99.90
77305;DHT22;66364;52.622;7.746;2023-02-01T01:42:43;5.00;99.90
77305;DHT22;66364;52.622;7.746;2023-02-01T01:44:59;5.10;99.90
77305;DHT22;66364;52.622;7.746;2023-02-01T01:47:00;5.20;99.90
77305;DHT22;66364;52.622;7.746;2023-02-01T01:49:23;5.10;99.90
77305;DHT22;66364;52.622;7.746;2023-02-01T01:51:38;5.20;99.90
77305;DHT22;66364;52.622;7.746;2023-02-01T01:53:47;5.10;99.90
77305;DHT22;66364;52.622;7.746;2023-02-01T01:55:48;5.10;99.90
77305;DHT22;66364;52.622;7.746;2023-02-01T01:58:00;5.00;99.90
77305;DHT22;66364;52.622;7.746;2023-02-01T02:00:05;5.30;99.90
77305;DHT22;66364;52.622;7.746;2023-02-01T02:02:06;5.10;99.90
77305;DHT22;66364;52.622;7.746;2023-02-01T02:04:09;5.10;99.90
77305;DHT22;66364;52.622;7.746;2023-02-01T02:08:39;5.20;99.90
77305;DHT22;66364;52.622;7.746;2023-02-01T02:10:41;5.30;99.90
77305;DHT22;66364;52.622;7.746;2023-02-01T02:12:44;5.20;99.90
77305;DHT22;66364;52.622;7.746;2023-02-01T02:14:47;5.30;99.90
77305;DHT22;66364;52.622;7.746;2023-02-01T02:27:21;5.10;99.90
77305;DHT22;66364;52.622;7.746;2023-02-01T02:38:55;5.30;99.90
77305;DHT22;66364;52.622;7.746;2023-02-01T02:41:19;5.20;99.90
77305;DHT22;66364;52.622;7.746;2023-02-01T02:43:47;5.30;99.90
77305;DHT22;66364;52.622;7.746;2023-02-01T02:48:36;5.10;99.90
77305;DHT22;66364;52.622;7.746;2023-02-01T02:50:46;5.30;99.90
77305;DHT22;66364;52.622;7.746;2023-02-01T02:53:01;5.30;99.90
77305;DHT22;66364;52.622;7.746;2023-02-01T02:55:05;5.30;99.90
77305;DHT22;66364;52.622;7.746;2023-02-01T02:57:11;5.40;99.90
77305;DHT22;66364;52.622;7.746;2023-02-01T02:59:15;5.50;99.90
77305;DHT22;66364;52.622;7.746;2023-02-01T03:01:18;5.30;99.90
77305;DHT22;66364;52.622;7.746;2023-02-01T03:03:19;5.40;99.90
77305;DHT22;66364;52.622;7.746;2023-02-01T03:05:21;5.20;99.90
77305;DHT22;66364;52.622;7.746;2023-02-01T03:09:47;5.40;99.90
77305;DHT22;66364;52.622;7.746;2023-02-01T03:14:12;5.10;99.90
77305;DHT22;66364;52.622;7.746;2023-02-01T03:16:26;5.00;99.90
77305;DHT22;66364;52.622;7.746;2023-02-01T03:18:36;5.10;99.90
77305;DHT22;66364;52.622;7.746;2023-02-01T03:20:37;5.10;99.90
77305;DHT22;66364;52.622;7.746;2023-02-01T03:22:45;5.00;99.90
77305;DHT22;66364;52.622;7.746;2023-02-01T03:25:01;5.00;99.90
77305;DHT22;66364;52.622;7.746;2023-02-01T03:27:21;4.80;99.90
77305;DHT22;66364;52.622;7.746;2023-02-01T03:29:29;4.90;99.90
77305;DHT22;66364;52.622;7.746;2023-02-01T03:31:31;4.90;99.90
77305;DHT22;66364;52.622;7.746;2023-02-01T03:33:34;4.90;99.90
77305;DHT22;66364;52.622;7.746;2023-02-01T03:35:42;4.70;99.90
77305;DHT22;66364;52.622;7.746;2023-02-01T03:37:43;4.90;99.90
77305;DHT22;66364;52.622;7.746;2023-02-01T03:40:05;4.70;99.90
77305;DHT22;66364;52.622;7.746;2023-02-01T03:42:31;4.80;99.90
77305;DHT22;66364;52.622;7.746;2023-02-01T03:44:34;4.80;99.90
77305;DHT22;66364;52.622;7.746;2023-02-01T03:46:47;5.00;99.90
77305;DHT22;66364;52.622;7.746;2023-02-01T03:48:48;4.80;99.90
77305;DHT22;66364;52.622;7.746;2023-02-01T03:50:52;4.80;99.90
77305;DHT22;66364;52.622;7.746;2023-02-01T03:53:02;4.80;99.90
77305;DHT22;66364;52.622;7.746;2023-02-01T03:55:06;4.90;99.90
77305;DHT22;66364;52.622;7.746;2023-02-01T03:57:12;4.90;99.90
77305;DHT22;66364;52.622;7.746;2023-02-01T03:59:14;4.70;99.90
77305;DHT22;66364;52.622;7.746;2023-02-01T04:01:17;4.80;99.90
77305;DHT22;66364;52.622;7.746;2023-02-01T04:03:18;5.00;99.90
77305;DHT22;66364;52.622;7.746;2023-02-01T04:05:19;4.70;99.90
77305;DHT22;66364;52.622;7.746;2023-02-01T04:07:21;4.90;99.90
77305;DHT22;66364;52.622;7.746;2023-02-01T04:09:22;5.10;99.90
77305;DHT22;66364;52.622;7.746;2023-02-01T04:11:23;4.90;99.90
77305;DHT22;66364;52.622;7.746;2023-02-01T04:13:24;4.90;99.90
77305;DHT22;66364;52.622;7.746;2023-02-01T04:15:25;4.80;99.90
77305;DHT22;66364;52.622;7.746;2023-02-01T04:17:27;4.80;99.90
77305;DHT22;66364;52.622;7.746;2023-02-01T04:19:29;5.20;99.90
77305;DHT22;66364;52.622;7.746;2023-02-01T04:21:30;5.10;99.90
77305;DHT22;66364;52.622;7.746;2023-02-01T04:23:32;5.00;99.90
77305;DHT22;66364;52.622;7.746;2023-02-01T04:25:34;5.00;99.90
77305;DHT22;66364;52.622;7.746;2023-02-01T04:27:35;5.00;99.90
77305;DHT22;66364;52.622;7.746;2023-02-01T04:29:36;5.30;99.90
77305;DHT22;66364;52.622;7.746;2023-02-01T04:31:37;5.20;99.90
77305;DHT22;66364;52.622;7.746;2023-02-01T04:33:38;5.20;99.90
77305;DHT22;66364;52.622;7.746;2023-02-01T04:35:40;5.20;99.90
77305;DHT22;66364;52.622;7.746;2023-02-01T04:38:07;5.20;99.90
77305;DHT22;66364;52.622;7.746;2023-02-01T04:40:10;5.00;99.90
77305;DHT22;66364;52.622;7.746;2023-02-01T04:42:12;5.10;99.90
77305;DHT22;66364;52.622;7.746;2023-02-01T04:44:16;5.20;99.90
77305;DHT22;66364;52.622;7.746;2023-02-01T04:46:31;4.60;99.90
77305;DHT22;66364;52.622;7.746;2023-02-01T04:48:32;5.30;99.90
77305;DHT22;66364;52.622;7.746;2023-02-01T04:50:33;4.70;99.90
77305;DHT22;66364;52.622;7.746;2023-02-01T04:52:35;4.90;99.90
77305;DHT22;66364;52.622;7.746;2023-02-01T04:54:36;5.30;99.90
77305;DHT22;66364;52.622;7.746;2023-02-01T04:56:37;5.00;99.90
77305;DHT22;66364;52.622;7.746;2023-02-01T04:58:38;5.30;99.90
77305;DHT22;66364;52.622;7.746;2023-02-01T05:00:39;5.20;99.90
77305;DHT22;66364;52.622;7.746;2023-02-01T05:02:40;5.10;99.90
77305;DHT22;66364;52.622;7.746;2023-02-01T05:04:41;5.20;99.90
77305;DHT22;66364;52.622;7.746;2023-02-01T05:06:42;5.00;99.90
77305;DHT22;66364;52.622;7.746;2023-02-01T05:08:43;5.20;99.90
77305;DHT22;66364;52.622;7.746;2023-02-01T05:10:44;5.20;99.90
77305;DHT22;66364;52.622;7.746;2023-02-01T05:12:45;5.20;99.90
77305;DHT22;66364;52.622;7.746;2023-02-01T05:15:06;5.10;99.90
77305;DHT22;66364;52.622;7.746;2023-02-01T05:17:07;5.10;99.90
77305;DHT22;66364;52.622;7.746;2023-02-01T05:19:08;5.30;99.90
77305;DHT22;66364;52.622;7.746;2023-02-01T05:21:09;5.50;99.90
77305;DHT22;66364;52.622;7.746;2023-02-01T05:23:11;5.30;99.90
77305;DHT22;66364;52.622;7.746;2023-02-01T05:25:12;5.20;99.90
77305;DHT22;66364;52.622;7.746;2023-02-01T05:27:23;5.40;99.90
77305;DHT22;66364;52.622;7.746;2023-02-01T05:29:25;5.30;99.90
77305;DHT22;66364;52.622;7.746;2023-02-01T05:31:26;5.30;99.90
77305;DHT22;66364;52.622;7.746;2023-02-01T05:33:26;5.30;99.90
77305;DHT22;66364;52.622;7.746;2023-02-01T05:35:42;5.60;99.90
77305;DHT22;66364;52.622;7.746;2023-02-01T05:37:44;5.60;99.90
77305;DHT22;66364;52.622;7.746;2023-02-01T05:39:45;5.30;99.90
77305;DHT22;66364;52.622;7.746;2023-02-01T05:41:47;5.30;99.90
77305;DHT22;66364;52.622;7.746;2023-02-01T05:43:47;5.60;99.90
77305;DHT22;66364;52.622;7.746;2023-02-01T05:45:51;5.50;99.90
77305;DHT22;66364;52.622;7.746;2023-02-01T05:47:53;5.40;99.90
77305;DHT22;66364;52.622;7.746;2023-02-01T05:50:02;5.20;99.90
77305;DHT22;66364;52.622;7.746;2023-02-01T05:52:03;5.40;99.90
77305;DHT22;66364;52.622;7.746;2023-02-01T05:54:04;5.60;99.90
77305;DHT22;66364;52.622;7.746;2023-02-01T05:56:31;5.50;99.90
77305;DHT22;66364;52.622;7.746;2023-02-01T05:58:35;5.70;99.90
77305;DHT22;66364;52.622;7.746;2023-02-01T06:00:36;5.60;99.90
77305;DHT22;66364;52.622;7.746;2023-02-01T06:02:37;5.60;99.90
77305;DHT22;66364;52.622;7.746;2023-02-01T06:04:38;5.80;99.90
77305;DHT22;66364;52.622;7.746;2023-02-01T06:06:40;5.70;99.90
77305;DHT22;66364;52.622;7.746;2023-02-01T06:08:41;5.70;99.90
77305;DHT22;66364;52.622;7.746;2023-02-01T06:10:43;5.70;99.90
77305;DHT22;66364;52.622;7.746;2023-02-01T06:12:45;5.80;99.90
77305;DHT22;66364;52.622;7.746;2023-02-01T06:14:58;6.00;99.90
77305;DHT22;66364;52.622;7.746;2023-02-01T06:16:59;5.60;99.90
77305;DHT22;66364;52.622;7.746;2023-02-01T06:19:00;5.60;99.90
77305;DHT22;66364;52.622;7.746;2023-02-01T06:21:01;5.60;99.90
77305;DHT22;66364;52.622;7.746;2023-02-01T06:23:03;5.70;99.90
77305;DHT22;66364;52.622;7.746;2023-02-01T06:25:07;5.90;99.90
77305;DHT22;66364;52.622;7.746;2023-02-01T06:27:09;5.70;99.90
77305;DHT22;66364;52.622;7.746;2023-02-01T06:29:30;5.60;99.90
77305;DHT22;66364;52.622;7.746;2023-02-01T06:31:51;5.60;99.90
77305;DHT22;66364;52.622;7.746;2023-02-01T06:33:52;5.60;99.90
77305;DHT22;66364;52.622;7.746;2023-02-01T06:35:58;5.60;99.90
77305;DHT22;66364;52.622;7.746;2023-02-01T06:37:59;5.80;99.90
77305;DHT22;66364;52.622;7.746;2023-02-01T06:40:00;6.00;99.90
77305;DHT22;66364;52.622;7.746;2023-02-01T06:42:01;5.80;99.90
77305;DHT22;66364;52.622;7.746;2023-02-01T06:44:02;6.10;99.90
77305;DHT22;66364;52.622;7.746;2023-02-01T06:46:06;5.80;99.90
77305;DHT22;66364;52.622;7.746;2023-02-01T06:48:07;5.70;99.90
77305;DHT22;66364;52.622;7.746;2023-02-01T06:50:10;5.80;99.90
77305;DHT22;66364;52.622;7.746;2023-02-01T06:52:11;6.00;99.90
77305;DHT22;66364;52.622;7.746;2023-02-01T06:54:13;5.70;99.90
77305;DHT22;66364;52.622;7.746;2023-02-01T06:56:13;6.00;99.90
77305;DHT22;66364;52.622;7.746;2023-02-01T06:58:14;5.80;99.90
77305;DHT22;66364;52.622;7.746;2023-02-01T07:00:16;5.70;99.90
77305;DHT22;66364;52.622;7.746;2023-02-01T07:02:21;5.70;99.90
77305;DHT22;66364;52.622;7.746;2023-02-01T07:04:23;5.90;99.90
77305;DHT22;66364;52.622;7.746;2023-02-01T07:06:25;5.90;99.90
77305;DHT22;66364;52.622;7.746;2023-02-01T07:08:45;6.00;99.90
77305;DHT22;66364;52.622;7.746;2023-02-01T07:10:46;5.90;99.90
77305;DHT22;66364;52.622;7.746;2023-02-01T07:12:47;5.70;99.90
77305;DHT22;66364;52.622;7.746;2023-02-01T07:14:48;5.80;99.90
77305;DHT22;66364;52.622;7.746;2023-02-01T07:16:50;6.20;99.90
77305;DHT22;66364;52.622;7.746;2023-02-01T07:18:51;6.20;99.90
77305;DHT22;66364;52.622;7.746;2023-02-01T07:20:54;6.00;99.90
77305;DHT22;66364;52.622;7.746;2023-02-01T07:22:56;6.20;99.90
77305;DHT22;66364;52.622;7.746;2023-02-01T07:24:57;6.00;99.90
77305;DHT22;66364;52.622;7.746;2023-02-01T07:26:58;6.30;99.90
77305;DHT22;66364;52.622;7.746;2023-02-01T07:29:00;6.30;99.90
77305;DHT22;66364;52.622;7.746;2023-02-01T07:31:14;6.00;99.90
77305;DHT22;66364;52.622;7.746;2023-02-01T07:33:15;6.20;99.90
77305;DHT22;66364;52.622;7.746;2023-02-01T07:35:16;5.90;99.90
77305;DHT22;66364;52.622;7.746;2023-02-01T07:37:17;6.10;99.90
77305;DHT22;66364;52.622;7.746;2023-02-01T07:39:18;5.90;99.90
77305;DHT22;66364;52.622;7.746;2023-02-01T07:41:19;6.00;99.90
77305;DHT22;66364;52.622;7.746;2023-02-01T07:43:20;6.20;99.90
77305;DHT22;66364;52.622;7.746;2023-02-01T07:45:22;6.30;99.90
77305;DHT22;66364;52.622;7.746;2023-02-01T07:47:23;6.30;99.90
77305;DHT22;66364;52.622;7.746;2023-02-01T07:49:25;6.00;99.90
77305;DHT22;66364;52.622;7.746;2023-02-01T07:51:25;6.00;99.90
77305;DHT22;66364;52.622;7.746;2023-02-01T07:53:27;6.20;99.90
77305;DHT22;66364;52.622;7.746;2023-02-01T07:55:29;6.30;99.90
77305;DHT22;66364;52.622;7.746;2023-02-01T07:57:31;6.00;99.90
77305;DHT22;66364;52.622;7.746;2023-02-01T07:59:33;6.00;99.90
77305;DHT22;66364;52.622;7.746;2023-02-01T08:01:35;6.20;99.90
77305;DHT22;66364;52.622;7.746;2023-02-01T08:03:35;6.20;99.90
77305;DHT22;66364;52.622;7.746;2023-02-01T08:05:36;6.00;99.90
77305;DHT22;66364;52.622;7.746;2023-02-01T08:07:37;6.00;99.90
77305;DHT22;66364;52.622;7.746;2023-02-01T08:09:39;6.00;99.90
77305;DHT22;66364;52.622;7.746;2023-02-01T08:11:41;6.10;99.90
77305;DHT22;66364;52.622;7.746;2023-02-01T08:13:43;6.00;99.90
77305;DHT22;66364;52.622;7.746;2023-02-01T08:15:44;6.30;99.90
77305;DHT22;66364;52.622;7.746;2023-02-01T08:17:49;6.10;99.90
77305;DHT22;66364;52.622;7.746;2023-02-01T08:19:50;6.10;99.90
77305;DHT22;66364;52.622;7.746;2023-02-01T08:21:51;6.00;99.90
77305;DHT22;66364;52.622;7.746;2023-02-01T08:23:53;6.00;99.90
77305;DHT22;66364;52.622;7.746;2023-02-01T08:26:04;6.10;99.90
77305;DHT22;66364;52.622;7.746;2023-02-01T08:28:06;6.00;99.90
77305;DHT22;66364;52.622;7.746;2023-02-01T08:30:08;5.90;99.90
77305;DHT22;66364;52.622;7.746;2023-02-01T08:32:10;6.00;99.90
77305;DHT22;66364;52.622;7.746;2023-02-01T08:34:12;6.20;99.90
77305;DHT22;66364;52.622;7.746;2023-02-01T08:36:13;6.30;99.90
77305;DHT22;66364;52.622;7.746;2023-02-01T08:38:14;6.10;99.90
77305;DHT22;66364;52.622;7.746;2023-02-01T08:40:15;6.30;99.90
77305;DHT22;66364;52.622;7.746;2023-02-01T08:42:17;6.30;99.90
77305;DHT22;66364;52.622;7.746;2023-02-01T08:44:18;6.10;99.90
77305;DHT22;66364;52.622;7.746;2023-02-01T08:46:20;5.90;99.90
77305;DHT22;66364;52.622;7.746;2023-02-01T08:48:22;6.10;99.90
77305;DHT22;66364;52.622;7.746;2023-02-01T08:50:24;6.30;99.90
77305;DHT22;66364;52.622;7.746;2023-02-01T08:52:26;6.30;99.90
77305;DHT22;66364;52.622;7.746;2023-02-01T08:54:27;6.50;99.90
77305;DHT22;66364;52.622;7.746;2023-02-01T08:56:28;6.20;99.90
77305;DHT22;66364;52.622;7.746;2023-02-01T08:58:29;6.50;99.90
77305;DHT22;66364;52.622;7.746;2023-02-01T09:00:30;6.50;99.90
77305;DHT22;66364;52.622;7.746;2023-02-01T09:02:31;6.30;99.90
77305;DHT22;66364;52.622;7.746;2023-02-01T09:04:32;6.30;99.90
77305;DHT22;66364;52.622;7.746;2023-02-01T09:06:34;6.20;99.90
77305;DHT22;66364;52.622;7.746;2023-02-01T09:08:36;6.60;99.90
77305;DHT22;66364;52.622;7.746;2023-02-01T09:10:37;6.50;99.90
77305;DHT22;66364;52.622;7.746;2023-02-01T09:12:38;6.50;99.90
77305;DHT22;66364;52.622;7.746;2023-02-01T09:14:38;6.40;99.90
77305;DHT22;66364;52.622;7.746;2023-02-01T09:16:39;6.60;99.90
77305;DHT22;66364;52.622;7.746;2023-02-01T09:18:40;6.40;99.90
77305;DHT22;66364;52.622;7.746;2023-02-01T09:20:42;6.40;99.90
77305;DHT22;66364;52.622;7.746;2023-02-01T09:22:42;6.50;99.90
77305;DHT22;66364;52.622;7.746;2023-02-01T09:24:44;6.20;99.90
77305;DHT22;66364;52.622;7.746;2023-02-01T09:26:45;5.80;99.90
77305;DHT22;66364;52.622;7.746;2023-02-01T09:28:46;6.60;99.90
77305;DHT22;66364;52.622;7.746;2023-02-01T09:30:47;5.90;99.90
77305;DHT22;66364;52.622;7.746;2023-02-01T09:32:48;6.60;99.90
77305;DHT22;66364;52.622;7.746;2023-02-01T09:34:50;6.40;99.90
77305;DHT22;66364;52.622;7.746;2023-02-01T09:36:52;6.90;99.90
77305;DHT22;66364;52.622;7.746;2023-02-01T09:38:54;6.80;99.90
77305;DHT22;66364;52.622;7.746;2023-02-01T09:40:56;6.80;99.90
77305;DHT22;66364;52.622;7.746;2023-02-01T09:47:23;6.60;99.90
77305;DHT22;66364;52.622;7.746;2023-02-01T09:49:29;6.30;99.90
77305;DHT22;66364;52.622;7.746;2023-02-01T09:51:34;6.60;99.90
77305;DHT22;66364;52.622;7.746;2023-02-01T09:53:45;6.70;99.90
77305;DHT22;66364;52.622;7.746;2023-02-01T09:55:49;6.70;99.90
77305;DHT22;66364;52.622;7.746;2023-02-01T09:57:54;6.30;99.90
77305;DHT22;66364;52.622;7.746;2023-02-01T10:02:22;6.70;99.90
77305;DHT22;66364;52.622;7.746;2023-02-01T10:04:25;6.90;99.90
77305;DHT22;66364;52.622;7.746;2023-02-01T10:08:59;6.50;99.90
77305;DHT22;66364;52.622;7.746;2023-02-01T10:10:43;6.70;99.90
77305;DHT22;66364;52.622;7.746;2023-02-01T10:22:13;6.70;99.90
77305;DHT22;66364;52.622;7.746;2023-02-01T10:26:41;6.90;99.90
77305;DHT22;66364;52.622;7.746;2023-02-01T10:28:38;6.80;99.90
77305;DHT22;66364;52.622;7.746;2023-02-01T10:30:47;6.70;99.90
77305;DHT22;66364;52.622;7.746;2023-02-01T10:32:48;6.70;99.90
77305;DHT22;66364;52.622;7.746;2023-02-01T10:37:29;6.60;99.90
77305;DHT22;66364;52.622;7.746;2023-02-01T10:39:56;6.80;99.90
77305;DHT22;66364;52.622;7.746;2023-02-01T10:41:58;6.50;99.90
77305;DHT22;66364;52.622;7.746;2023-02-01T10:43:59;6.00;99.90
77305;DHT22;66364;52.622;7.746;2023-02-01T10:46:03;6.40;99.90
77305;DHT22;66364;52.622;7.746;2023-02-01T10:48:05;6.30;99.90
77305;DHT22;66364;52.622;7.746;2023-02-01T10:54:37;6.30;99.90
77305;DHT22;66364;52.622;7.746;2023-02-01T10:56:40;6.20;99.90
77305;DHT22;66364;52.622;7.746;2023-02-01T10:58:47;6.50;99.90
77305;DHT22;66364;52.622;7.746;2023-02-01T11:05:24;6.00;99.90
77305;DHT22;66364;52.622;7.746;2023-02-01T11:07:28;6.20;99.90
77305;DHT22;66364;52.622;7.746;2023-02-01T11:09:29;6.20;99.90
77305;DHT22;66364;52.622;7.746;2023-02-01T11:11:31;5.90;99.90
77305;DHT22;66364;52.622;7.746;2023-02-01T11:13:36;5.90;99.90
77305;DHT22;66364;52.622;7.746;2023-02-01T11:15:37;6.10;99.90
77305;DHT22;66364;52.622;7.746;2023-02-01T11:17:40;5.70;99.90
77305;DHT22;66364;52.622;7.746;2023-02-01T11:19:56;5.70;99.90
77305;DHT22;66364;52.622;7.746;2023-02-01T11:22:03;5.70;99.90
77305;DHT22;66364;52.622;7.746;2023-02-01T11:26:29;5.80;99.90
77305;DHT22;66364;52.622;7.746;2023-02-01T11:28:32;5.70;99.90
77305;DHT22;66364;52.622;7.746;2023-02-01T11:32:49;5.30;99.90
77305;DHT22;66364;52.622;7.746;2023-02-01T11:34:59;5.80;99.90
77305;DHT22;66364;52.622;7.746;2023-02-01T11:36:59;5.20;99.90
77305;DHT22;66364;52.622;7.746;2023-02-01T11:41:17;5.60;99.90
77305;DHT22;66364;52.622;7.746;2023-02-01T11:43:27;5.80;99.90
77305;DHT22;66364;52.622;7.746;2023-02-01T11:45:31;5.60;99.90
77305;DHT22;66364;52.622;7.746;2023-02-01T11:47:40;5.60;99.90
77305;DHT22;66364;52.622;7.746;2023-02-01T11:49:42;5.70;99.90
77305;DHT22;66364;52.622;7.746;2023-02-01T11:56:37;5.70;99.90
77305;DHT22;66364;52.622;7.746;2023-02-01T12:16:07;6.20;99.90
77305;DHT22;66364;52.622;7.746;2023-02-01T12:25:41;5.90;99.90
77305;DHT22;66364;52.622;7.746;2023-02-01T12:35:33;6.20;99.90
77305;DHT22;66364;52.622;7.746;2023-02-01T12:38:16;5.90;99.90
77305;DHT22;66364;52.622;7.746;2023-02-01T12:52:37;6.00;99.90
77305;DHT22;66364;52.622;7.746;2023-02-01T12:55:02;6.00;99.90
77305;DHT22;66364;52.622;7.746;2023-02-01T12:57:12;6.00;99.90
77305;DHT22;66364;52.622;7.746;2023-02-01T13:01:46;6.60;99.90
77305;DHT22;66364;52.622;7.746;2023-02-01T13:04:10;6.60;99.90
77305;DHT22;66364;52.622;7.746;2023-02-01T13:08:16;7.00;99.90
77305;DHT22;66364;52.622;7.746;2023-02-01T13:12:59;8.20;99.90
77305;DHT22;66364;52.622;7.746;2023-02-01T13:14:54;7.40;99.90
77305;DHT22;66364;52.622;7.746;2023-02-01T13:17:05;7.20;99.90
77305;DHT22;66364;52.622;7.746;2023-02-01T13:21:58;6.60;99.90
77305;DHT22;66364;52.622;7.746;2023-02-01T13:24:01;6.00;99.90
77305;DHT22;66364;52.622;7.746;2023-02-01T13:26:03;6.00;99.90
77305;DHT22;66364;52.622;7.746;2023-02-01T13:28:28;5.90;99.90
77305;DHT22;66364;52.622;7.746;2023-02-01T13:30:54;6.10;99.90
77305;DHT22;66364;52.622;7.746;2023-02-01T13:33:26;6.30;99.90
77305;DHT22;66364;52.622;7.746;2023-02-01T13:42:25;6.40;99.90
77305;DHT22;66364;52.622;7.746;2023-02-01T13:46:54;6.50;99.90
77305;DHT22;66364;52.622;7.746;2023-02-01T13:48:59;7.20;99.90
77305;DHT22;66364;52.622;7.746;2023-02-01T13:51:02;7.30;99.90
77305;DHT22;66364;52.622;7.746;2023-02-01T13:53:16;7.40;99.90
77305;DHT22;66364;52.622;7.746;2023-02-01T13:55:34;7.20;99.90
77305;DHT22;66364;52.622;7.746;2023-02-01T13:57:38;7.50;99.90
77305;DHT22;66364;52.622;7.746;2023-02-01T14:07:31;7.30;99.90
77305;DHT22;66364;52.622;7.746;2023-02-01T14:09:40;7.40;99.90
77305;DHT22;66364;52.622;7.746;2023-02-01T14:11:52;7.30;99.90
77305;DHT22;66364;52.622;7.746;2023-02-01T14:13:54;7.20;99.90
77305;DHT22;66364;52.622;7.746;2023-02-01T14:20:48;6.90;99.90
77305;DHT22;66364;52.622;7.746;2023-02-01T14:22:49;6.80;99.90
77305;DHT22;66364;52.622;7.746;2023-02-01T14:24:53;6.90;99.90
77305;DHT22;66364;52.622;7.746;2023-02-01T14:26:58;6.60;99.90
77305;DHT22;66364;52.622;7.746;2023-02-01T14:33:27;7.10;99.90
77305;DHT22;66364;52.622;7.746;2023-02-01T14:35:29;6.90;99.90
77305;DHT22;66364;52.622;7.746;2023-02-01T14:37:33;7.00;99.90
77305;DHT22;66364;52.622;7.746;2023-02-01T14:42:03;6.90;99.90
77305;DHT22;66364;52.622;7.746;2023-02-01T14:46:11;7.10;99.90
77305;DHT22;66364;52.622;7.746;2023-02-01T14:50:32;7.10;99.90
77305;DHT22;66364;52.622;7.746;2023-02-01T14:52:36;7.10;99.90
77305;DHT22;66364;52.622;7.746;2023-02-01T14:54:39;7.00;99.90
77305;DHT22;66364;52.622;7.746;2023-02-01T14:56:41;7.40;99.90
77305;DHT22;66364;52.622;7.746;2023-02-01T14:59:00;7.50;99.90
77305;DHT22;66364;52.622;7.746;2023-02-01T15:01:06;7.50;99.90
77305;DHT22;66364;52.622;7.746;2023-02-01T15:03:32;7.50;99.90
77305;DHT22;66364;52.622;7.746;2023-02-01T15:05:33;7.30;99.90
77305;DHT22;66364;52.622;7.746;2023-02-01T15:07:35;7.50;99.90
77305;DHT22;66364;52.622;7.746;2023-02-01T15:14:14;7.10;99.90
77305;DHT22;66364;52.622;7.746;2023-02-01T15:16:16;7.20;99.90
77305;DHT22;66364;52.622;7.746;2023-02-01T15:18:17;7.10;99.90
77305;DHT22;66364;52.622;7.746;2023-02-01T15:20:22;7.10;99.90
77305;DHT22;66364;52.622;7.746;2023-02-01T15:22:26;7.20;99.90
77305;DHT22;66364;52.622;7.746;2023-02-01T15:24:30;7.20;99.90
77305;DHT22;66364;52.622;7.746;2023-02-01T15:26:33;7.10;99.90
77305;DHT22;66364;52.622;7.746;2023-02-01T15:28:35;6.90;99.90
77305;DHT22;66364;52.622;7.746;2023-02-01T15:30:36;7.20;99.90
77305;DHT22;66364;52.622;7.746;2023-02-01T15:32:39;7.20;99.90
77305;DHT22;66364;52.622;7.746;2023-02-01T15:37:13;6.90;99.90
77305;DHT22;66364;52.622;7.746;2023-02-01T15:39:23;7.20;99.90
77305;DHT22;66364;52.622;7.746;2023-02-01T15:41:31;7.10;99.90
77305;DHT22;66364;52.622;7.746;2023-02-01T15:45:45;6.80;99.90
77305;DHT22;66364;52.622;7.746;2023-02-01T15:47:49;6.60;99.90
77305;DHT22;66364;52.622;7.746;2023-02-01T15:49:53;6.50;99.90
77305;DHT22;66364;52.622;7.746;2023-02-01T15:51:55;6.80;99.90
77305;DHT22;66364;52.622;7.746;2023-02-01T15:58:55;6.90;99.90
77305;DHT22;66364;52.622;7.746;2023-02-01T16:00:59;6.70;99.90
77305;DHT22;66364;52.622;7.746;2023-02-01T16:03:05;6.70;99.90
77305;DHT22;66364;52.622;7.746;2023-02-01T16:09:54;6.80;99.90
77305;DHT22;66364;52.622;7.746;2023-02-01T16:11:58;6.80;99.90
77305;DHT22;66364;52.622;7.746;2023-02-01T16:14:00;6.10;99.90
77305;DHT22;66364;52.622;7.746;2023-02-01T16:16:03;6.40;99.90
77305;DHT22;66364;52.622;7.746;2023-02-01T16:18:06;6.90;99.90